Portada
METAR-TAF:

METAR-TAF

Aeroports :

Oakey, Austràlia

latitud: 27-24-41S, longitud: 151-44-07E, altitud: 407 m

Observació

L'informe es va fer fa 40 minuts, a les 14:00 UTC
Vent 3 kt del Nord/Nord-Oest
Temperatura 1°C
Humitat 55%
Pressió 1019 hPa
Visibilitat 10 km o més

METAR: YBOK 161400Z AUTO 33003KT 9999 // NCD 01/M07 Q1019

Hora: 00:40 (14:40 UTC)


TAF: manca

Observacions i pronòstics meteorològics de més de 4000 aeroports (METAR i TAF).

Les estacions disponibles són els punts grocs i vermells al mapa.

Posi el ratolí al punt desitjat per veure el nom de l'estació.

Feu clic per veure les observacions i els pronòstics meteorològics.

Per canviar el mapa: feu clic els botons verds amb una creu de color negre per apropar; al botó verd amb un guió per allunyar la imatge; o en les fletxes verdes per a mapes adjacents.


METAR-TAF: